sensor_id;sensor_type;location;lat;lon;timestamp;pressure;altitude;pressure_sealevel;temperature;humidity
56829;BME280;52443;50.130;8.718;2022-07-05T00:12:41;100271.75;;;23.41;33.36
56829;BME280;52443;50.130;8.718;2022-07-05T00:18:22;100262.06;;;23.27;33.67
56829;BME280;52443;50.130;8.718;2022-07-05T00:23:40;100258.56;;;23.26;33.86
56829;BME280;52443;50.130;8.718;2022-07-05T00:28:59;100269.94;;;23.28;33.62
56829;BME280;52443;50.130;8.718;2022-07-05T00:34:21;100268.84;;;23.18;34.30
56829;BME280;52443;50.130;8.718;2022-07-05T00:39:59;100274.34;;;23.15;34.16
56829;BME280;52443;50.130;8.718;2022-07-05T00:50:51;100274.97;;;23.06;34.55
56829;BME280;52443;50.130;8.718;2022-07-05T00:56:10;100280.38;;;23.05;34.40
56829;BME280;52443;50.130;8.718;2022-07-05T01:01:38;100284.06;;;23.02;34.56
56829;BME280;52443;50.130;8.718;2022-07-05T01:07:00;100287.25;;;22.95;34.37
56829;BME280;52443;50.130;8.718;2022-07-05T01:12:14;100288.72;;;22.99;34.61
56829;BME280;52443;50.130;8.718;2022-07-05T01:17:27;100283.91;;;22.91;34.67
56829;BME280;52443;50.130;8.718;2022-07-05T01:23:06;100275.34;;;22.87;34.68
56829;BME280;52443;50.130;8.718;2022-07-05T01:28:22;100280.72;;;22.86;34.71
56829;BME280;52443;50.130;8.718;2022-07-05T01:33:30;100281.66;;;22.85;35.01
56829;BME280;52443;50.130;8.718;2022-07-05T01:38:42;100282.81;;;22.81;35.03
56829;BME280;52443;50.130;8.718;2022-07-05T01:44:00;100269.97;;;22.75;35.12
56829;BME280;52443;50.130;8.718;2022-07-05T01:49:23;100262.56;;;22.66;35.03
56829;BME280;52443;50.130;8.718;2022-07-05T01:54:48;100249.94;;;22.57;35.18
56829;BME280;52443;50.130;8.718;2022-07-05T02:00:29;100256.94;;;22.43;35.30
56829;BME280;52443;50.130;8.718;2022-07-05T02:05:56;100260.38;;;22.45;35.57
56829;BME280;52443;50.130;8.718;2022-07-05T02:11:27;100258.19;;;22.38;35.41
56829;BME280;52443;50.130;8.718;2022-07-05T02:16:52;100263.31;;;22.41;35.65
56829;BME280;52443;50.130;8.718;2022-07-05T02:22:12;100265.41;;;22.36;35.60
56829;BME280;52443;50.130;8.718;2022-07-05T02:27:28;100266.91;;;22.26;35.69
56829;BME280;52443;50.130;8.718;2022-07-05T02:32:53;100255.13;;;22.17;36.04
56829;BME280;52443;50.130;8.718;2022-07-05T02:38:18;100264.38;;;22.10;36.17
56829;BME280;52443;50.130;8.718;2022-07-05T02:43:34;100269.97;;;22.05;36.51
56829;BME280;52443;50.130;8.718;2022-07-05T02:48:44;100285.84;;;22.05;36.46
56829;BME280;52443;50.130;8.718;2022-07-05T02:53:59;100275.94;;;21.95;36.90
56829;BME280;52443;50.130;8.718;2022-07-05T02:59:18;100264.28;;;21.83;37.14
56829;BME280;52443;50.130;8.718;2022-07-05T03:04:39;100286.09;;;21.87;37.25
56829;BME280;52443;50.130;8.718;2022-07-05T03:09:47;100279.47;;;21.80;37.59
56829;BME280;52443;50.130;8.718;2022-07-05T03:14:53;100268.97;;;21.64;37.92
56829;BME280;52443;50.130;8.718;2022-07-05T03:20:04;100284.28;;;21.59;37.73
56829;BME280;52443;50.130;8.718;2022-07-05T03:25:18;100279.63;;;21.48;37.83
56829;BME280;52443;50.130;8.718;2022-07-05T03:30:37;100292.94;;;21.47;37.88
56829;BME280;52443;50.130;8.718;2022-07-05T03:35:52;100289.88;;;21.39;38.14
56829;BME280;52443;50.130;8.718;2022-07-05T03:41:08;100286.66;;;21.34;38.00
56829;BME280;52443;50.130;8.718;2022-07-05T03:46:15;100298.56;;;21.41;38.23
56829;BME280;52443;50.130;8.718;2022-07-05T03:51:21;100289.78;;;21.40;37.98
56829;BME280;52443;50.130;8.718;2022-07-05T03:56:31;100299.34;;;21.43;37.91
56829;BME280;52443;50.130;8.718;2022-07-05T04:01:43;100285.44;;;21.39;38.05
56829;BME280;52443;50.130;8.718;2022-07-05T04:06:49;100304.44;;;21.46;37.92
56829;BME280;52443;50.130;8.718;2022-07-05T04:12:11;100292.28;;;21.43;38.21
56829;BME280;52443;50.130;8.718;2022-07-05T04:17:28;100293.69;;;21.49;38.27
56829;BME280;52443;50.130;8.718;2022-07-05T04:22:38;100295.66;;;21.45;38.71
56829;BME280;52443;50.130;8.718;2022-07-05T04:28:03;100300.09;;;21.45;38.69
56829;BME280;52443;50.130;8.718;2022-07-05T04:33:36;100305.22;;;21.48;38.87
56829;BME280;52443;50.130;8.718;2022-07-05T04:38:42;100305.56;;;21.42;38.95
56829;BME280;52443;50.130;8.718;2022-07-05T04:44:15;100327.22;;;21.48;38.98
56829;BME280;52443;50.130;8.718;2022-07-05T04:49:26;100323.91;;;21.45;39.38
56829;BME280;52443;50.130;8.718;2022-07-05T04:54:46;100325.88;;;21.41;39.41
56829;BME280;52443;50.130;8.718;2022-07-05T04:59:49;100320.66;;;21.40;39.66
56829;BME280;52443;50.130;8.718;2022-07-05T05:05:03;100323.81;;;21.46;39.54
56829;BME280;52443;50.130;8.718;2022-07-05T05:10:08;100330.25;;;21.56;39.54
56829;BME280;52443;50.130;8.718;2022-07-05T05:15:19;100322.81;;;21.63;39.78
56829;BME280;52443;50.130;8.718;2022-07-05T05:20:24;100335.97;;;21.79;39.42
56829;BME280;52443;50.130;8.718;2022-07-05T05:25:37;100332.97;;;21.85;39.57
56829;BME280;52443;50.130;8.718;2022-07-05T05:30:49;100345.81;;;22.06;39.26
56829;BME280;52443;50.130;8.718;2022-07-05T05:36:01;100341.53;;;22.32;38.88
56829;BME280;52443;50.130;8.718;2022-07-05T05:41:13;100345.81;;;22.90;38.60
56829;BME280;52443;50.130;8.718;2022-07-05T05:46:19;100361.38;;;23.50;37.67
56829;BME280;52443;50.130;8.718;2022-07-05T05:51:26;100342.31;;;23.83;37.67
56829;BME280;52443;50.130;8.718;2022-07-05T05:56:31;100351.91;;;24.10;37.18
56829;BME280;52443;50.130;8.718;2022-07-05T06:01:39;100370.19;;;24.28;36.80
56829;BME280;52443;50.130;8.718;2022-07-05T06:06:43;100370.94;;;24.30;36.92
56829;BME280;52443;50.130;8.718;2022-07-05T06:11:46;100371.69;;;24.32;37.49
56829;BME280;52443;50.130;8.718;2022-07-05T06:16:55;100372.97;;;24.39;37.35
56829;BME280;52443;50.130;8.718;2022-07-05T06:21:59;100379.41;;;24.47;37.25
56829;BME280;52443;50.130;8.718;2022-07-05T06:27:03;100392.06;;;24.57;37.18
56829;BME280;52443;50.130;8.718;2022-07-05T06:32:06;100388.00;;;24.64;36.89
56829;BME280;52443;50.130;8.718;2022-07-05T06:37:10;100385.88;;;24.69;37.13
56829;BME280;52443;50.130;8.718;2022-07-05T06:42:13;100392.44;;;24.76;37.06
56829;BME280;52443;50.130;8.718;2022-07-05T06:47:16;100394.16;;;24.89;36.89
56829;BME280;52443;50.130;8.718;2022-07-05T06:52:20;100394.47;;;24.98;36.80
56829;BME280;52443;50.130;8.718;2022-07-05T06:57:23;100377.22;;;25.03;36.87
56829;BME280;52443;50.130;8.718;2022-07-05T07:02:34;100382.59;;;25.14;36.69
56829;BME280;52443;50.130;8.718;2022-07-05T07:07:43;100393.28;;;25.25;36.71
56829;BME280;52443;50.130;8.718;2022-07-05T07:12:48;100392.59;;;25.34;36.51
56829;BME280;52443;50.130;8.718;2022-07-05T07:25:27;100406.13;;;25.55;36.29
56829;BME280;52443;50.130;8.718;2022-07-05T07:36:59;100400.44;;;25.72;36.12
56829;BME280;52443;50.130;8.718;2022-07-05T07:42:05;100407.34;;;25.86;35.96
56829;BME280;52443;50.130;8.718;2022-07-05T07:47:10;100411.16;;;25.95;35.28
56829;BME280;52443;50.130;8.718;2022-07-05T07:52:13;100413.84;;;26.06;35.43
56829;BME280;52443;50.130;8.718;2022-07-05T07:57:17;100413.84;;;26.17;34.86
56829;BME280;52443;50.130;8.718;2022-07-05T08:02:21;100406.88;;;26.27;34.95
56829;BME280;52443;50.130;8.718;2022-07-05T08:07:24;100409.81;;;26.35;34.50
56829;BME280;52443;50.130;8.718;2022-07-05T08:12:28;100411.41;;;26.49;34.47
56829;BME280;52443;50.130;8.718;2022-07-05T08:17:31;100397.44;;;26.56;34.20
56829;BME280;52443;50.130;8.718;2022-07-05T08:22:34;100403.13;;;26.63;33.80
56829;BME280;52443;50.130;8.718;2022-07-05T08:27:39;100389.44;;;26.68;33.67
56829;BME280;52443;50.130;8.718;2022-07-05T08:32:42;100384.34;;;26.87;33.46
56829;BME280;52443;50.130;8.718;2022-07-05T08:37:48;100382.41;;;27.00;33.05
56829;BME280;52443;50.130;8.718;2022-07-05T08:42:55;100380.31;;;27.15;33.20
56829;BME280;52443;50.130;8.718;2022-07-05T08:48:02;100380.91;;;27.18;32.87
56829;BME280;52443;50.130;8.718;2022-07-05T08:53:06;100383.09;;;27.24;32.84
56829;BME280;52443;50.130;8.718;2022-07-05T08:58:11;100387.31;;;27.27;32.49
56829;BME280;52443;50.130;8.718;2022-07-05T09:03:15;100376.03;;;27.23;32.08
56829;BME280;52443;50.130;8.718;2022-07-05T09:08:19;100382.00;;;27.16;31.81
56829;BME280;52443;50.130;8.718;2022-07-05T09:13:26;100398.50;;;27.10;31.82
56829;BME280;52443;50.130;8.718;2022-07-05T09:18:43;100385.31;;;26.97;31.87
56829;BME280;52443;50.130;8.718;2022-07-05T09:23:54;100387.66;;;26.90;31.49
56829;BME280;52443;50.130;8.718;2022-07-05T09:28:59;100377.19;;;26.87;31.47
56829;BME280;52443;50.130;8.718;2022-07-05T09:34:22;100385.31;;;26.97;31.34
56829;BME280;52443;50.130;8.718;2022-07-05T09:39:39;100382.53;;;26.98;31.18
56829;BME280;52443;50.130;8.718;2022-07-05T09:44:45;100380.22;;;27.05;31.39
56829;BME280;52443;50.130;8.718;2022-07-05T09:49:50;100371.13;;;27.08;31.14
56829;BME280;52443;50.130;8.718;2022-07-05T09:55:14;100371.78;;;27.21;31.10
56829;BME280;52443;50.130;8.718;2022-07-05T10:00:21;100372.13;;;27.27;30.47
56829;BME280;52443;50.130;8.718;2022-07-05T10:05:25;100380.25;;;27.26;30.63
56829;BME280;52443;50.130;8.718;2022-07-05T10:10:29;100381.84;;;27.28;30.50
56829;BME280;52443;50.130;8.718;2022-07-05T10:15:35;100383.97;;;27.46;30.39
56829;BME280;52443;50.130;8.718;2022-07-05T10:20:42;100378.22;;;27.61;29.98
56829;BME280;52443;50.130;8.718;2022-07-05T10:25:47;100382.16;;;27.78;29.65
56829;BME280;52443;50.130;8.718;2022-07-05T10:30:52;100391.41;;;27.95;29.02
56829;BME280;52443;50.130;8.718;2022-07-05T10:35:55;100380.38;;;28.09;28.83
56829;BME280;52443;50.130;8.718;2022-07-05T10:41:02;100388.03;;;28.13;28.65
56829;BME280;52443;50.130;8.718;2022-07-05T10:46:07;100383.66;;;28.12;28.46
56829;BME280;52443;50.130;8.718;2022-07-05T10:51:15;100381.22;;;28.09;28.48
56829;BME280;52443;50.130;8.718;2022-07-05T10:56:18;100372.84;;;28.14;28.51
56829;BME280;52443;50.130;8.718;2022-07-05T11:01:46;100377.53;;;28.22;28.55
56829;BME280;52443;50.130;8.718;2022-07-05T11:06:49;100377.31;;;28.34;28.28
56829;BME280;52443;50.130;8.718;2022-07-05T11:12:04;100383.97;;;28.40;28.33
56829;BME280;52443;50.130;8.718;2022-07-05T11:17:29;100375.66;;;28.43;28.23
56829;BME280;52443;50.130;8.718;2022-07-05T11:23:04;100363.28;;;28.42;28.25
56829;BME280;52443;50.130;8.718;2022-07-05T11:28:12;100361.06;;;28.47;28.18
56829;BME280;52443;50.130;8.718;2022-07-05T11:33:44;100356.28;;;28.50;27.91
56829;BME280;52443;50.130;8.718;2022-07-05T11:39:13;100348.81;;;28.54;27.74
56829;BME280;52443;50.130;8.718;2022-07-05T11:44:16;100350.53;;;28.55;27.63
56829;BME280;52443;50.130;8.718;2022-07-05T11:49:23;100348.03;;;28.63;27.49
56829;BME280;52443;50.130;8.718;2022-07-05T11:54:28;100341.41;;;28.67;27.44
56829;BME280;52443;50.130;8.718;2022-07-05T11:59:31;100345.53;;;28.71;27.24
56829;BME280;52443;50.130;8.718;2022-07-05T12:04:35;100340.47;;;28.78;26.96
56829;BME280;52443;50.130;8.718;2022-07-05T12:09:38;100333.19;;;28.80;27.13
56829;BME280;52443;50.130;8.718;2022-07-05T12:14:49;100316.00;;;28.82;26.73
56829;BME280;52443;50.130;8.718;2022-07-05T12:19:55;100322.66;;;28.88;26.83
56829;BME280;52443;50.130;8.718;2022-07-05T12:24:59;100319.97;;;28.88;26.80
56829;BME280;52443;50.130;8.718;2022-07-05T12:30:04;100318.28;;;28.87;26.76
56829;BME280;52443;50.130;8.718;2022-07-05T12:35:32;100318.97;;;28.89;26.27
56829;BME280;52443;50.130;8.718;2022-07-05T12:40:37;100314.03;;;28.84;25.94
56829;BME280;52443;50.130;8.718;2022-07-05T12:46:00;100317.75;;;28.72;25.55
56829;BME280;52443;50.130;8.718;2022-07-05T12:51:06;100313.16;;;28.74;25.85
56829;BME280;52443;50.130;8.718;2022-07-05T12:56:23;100310.75;;;28.71;25.54
56829;BME280;52443;50.130;8.718;2022-07-05T13:01:28;100315.09;;;28.72;25.76
56829;BME280;52443;50.130;8.718;2022-07-05T13:06:52;100298.47;;;28.69;25.50
56829;BME280;52443;50.130;8.718;2022-07-05T13:12:06;100303.00;;;28.68;25.53
56829;BME280;52443;50.130;8.718;2022-07-05T13:17:10;100298.63;;;28.67;25.13
56829;BME280;52443;50.130;8.718;2022-07-05T13:22:15;100290.03;;;28.64;25.27
56829;BME280;52443;50.130;8.718;2022-07-05T13:27:18;100293.13;;;28.59;25.35
56829;BME280;52443;50.130;8.718;2022-07-05T13:32:20;100295.94;;;28.57;25.29
56829;BME280;52443;50.130;8.718;2022-07-05T13:37:27;100292.84;;;28.62;25.29
56829;BME280;52443;50.130;8.718;2022-07-05T13:42:30;100285.53;;;28.64;25.52
56829;BME280;52443;50.130;8.718;2022-07-05T13:47:32;100286.94;;;28.68;25.65
56829;BME280;52443;50.130;8.718;2022-07-05T13:52:36;100293.97;;;28.69;25.50
56829;BME280;52443;50.130;8.718;2022-07-05T13:57:39;100291.31;;;28.69;25.88
56829;BME280;52443;50.130;8.718;2022-07-05T14:02:43;100288.50;;;28.71;25.78
56829;BME280;52443;50.130;8.718;2022-07-05T14:07:52;100288.34;;;28.72;25.71
56829;BME280;52443;50.130;8.718;2022-07-05T14:12:56;100286.97;;;28.78;26.03
56829;BME280;52443;50.130;8.718;2022-07-05T14:21:02;100287.13;;;28.86;26.31
56829;BME280;52443;50.130;8.718;2022-07-05T16:53:30;100249.78;;;28.15;28.29
56829;BME280;52443;50.130;8.718;2022-07-05T18:04:47;100299.88;;;27.51;27.97
56829;BME280;52443;50.130;8.718;2022-07-05T18:09:49;100300.97;;;27.49;28.26
56829;BME280;52443;50.130;8.718;2022-07-05T18:14:54;100299.66;;;27.43;28.22
56829;BME280;52443;50.130;8.718;2022-07-05T18:20:07;100311.66;;;27.37;28.22
56829;BME280;52443;50.130;8.718;2022-07-05T18:25:10;100312.91;;;27.33;28.29
56829;BME280;52443;50.130;8.718;2022-07-05T18:30:20;100316.81;;;27.29;28.37
56829;BME280;52443;50.130;8.718;2022-07-05T18:35:24;100320.00;;;27.23;28.31
56829;BME280;52443;50.130;8.718;2022-07-05T18:40:27;100320.50;;;27.17;28.35
56829;BME280;52443;50.130;8.718;2022-07-05T18:45:31;100329.03;;;27.11;28.21
56829;BME280;52443;50.130;8.718;2022-07-05T18:50:33;100327.31;;;27.10;28.63
56829;BME280;52443;50.130;8.718;2022-07-05T18:55:36;100331.22;;;27.06;28.31
56829;BME280;52443;50.130;8.718;2022-07-05T19:00:40;100344.94;;;27.02;28.47
56829;BME280;52443;50.130;8.718;2022-07-05T19:05:44;100347.84;;;26.98;28.41
56829;BME280;52443;50.130;8.718;2022-07-05T19:10:48;100352.13;;;26.90;28.76
56829;BME280;52443;50.130;8.718;2022-07-05T19:15:54;100358.16;;;26.81;28.66
56829;BME280;52443;50.130;8.718;2022-07-05T19:20:56;100358.66;;;26.75;28.52
56829;BME280;52443;50.130;8.718;2022-07-05T19:26:03;100352.97;;;26.68;28.70
56829;BME280;52443;50.130;8.718;2022-07-05T19:31:09;100363.03;;;26.53;28.26
56829;BME280;52443;50.130;8.718;2022-07-05T19:44:26;100374.38;;;26.22;28.47
56829;BME280;52443;50.130;8.718;2022-07-05T19:49:31;100373.78;;;26.07;28.58
56829;BME280;52443;50.130;8.718;2022-07-05T20:30:41;100417.00;;;25.52;29.70
56829;BME280;52443;50.130;8.718;2022-07-05T20:35:45;100402.44;;;25.45;29.51
56829;BME280;52443;50.130;8.718;2022-07-05T20:40:53;100414.53;;;25.38;29.61
56829;BME280;52443;50.130;8.718;2022-07-05T20:46:02;100417.41;;;25.35;29.74
56829;BME280;52443;50.130;8.718;2022-07-05T20:59:42;100424.81;;;25.19;30.08
56829;BME280;52443;50.130;8.718;2022-07-05T21:13:26;100443.13;;;25.11;30.17
56829;BME280;52443;50.130;8.718;2022-07-05T21:32:32;100457.84;;;24.78;30.49
56829;BME280;52443;50.130;8.718;2022-07-05T21:39:46;100482.84;;;24.76;30.83
56829;BME280;52443;50.130;8.718;2022-07-05T21:46:21;100473.50;;;24.58;31.20
56829;BME280;52443;50.130;8.718;2022-07-05T22:38:01;100552.69;;;23.86;32.69
56829;BME280;52443;50.130;8.718;2022-07-05T23:02:24;100558.09;;;23.58;33.88
56829;BME280;52443;50.130;8.718;2022-07-05T23:08:08;100564.44;;;23.55;33.99
